LHPR Airport Information

Runway Information
Runway 12 Length 4757 ft width 98 ft
Elevation 418 ft Threshold 0 ft Heading 120
Runway 30 Length 4757 ft Width 98 ft
Elevation 426 ft Threshold 0 ft Heading 300
Runway 12L Length 3720 ft width 140 ft
Elevation 0 ft Threshold 0 ft Heading 119
Runway 30R Length 3720 ft Width 140 ft
Elevation 0 ft Threshold 0 ft Heading 299
Airport Frequencies
Type AAS Name AFIS Frequency 129.9 MHZ
Type INFO Name BUDAPEST I Frequency 125.5 MHZ
Airport Navaids
Type VOR-DME Name Gyor Frequency 115100 KHZ
Type NDB Name Gyor Frequency 354 KHZ
Airport Weather Information & NOTAM
ADDS - METARS form results

(0905 UTC 22 January 2019)
Data provider http://aviationweather.gov/metar/data/
 
METAR text: LHPR 220845Z VRB01KT 4000 BR NSC M05/M06 Q1016 RMK GRN
Conditions at: LHPR (GYOR , HU) observed 0845 UTC 22 January 2019
Temperature: -5.0°C (23°F)
Dewpoint: -6.0°C (21°F) [RH = 93%]
Pressure (altimeter): 30.00 inches Hg (1016.0 mb)
Winds: variable direction winds at 1 MPH (1 knots; 0.5 m/s)
Visibility: 2.49 miles (4.01 km)
Ceiling: at least 12,000 feet AGL
Clouds: sky clear below 12,000 feet AGL
Weather: BR  (mist)

METAR text: LHPR 220815Z 00000KT 3000 BR NSC M06/M06 Q1016 RMK YLO
Conditions at: LHPR (GYOR , HU) observed 0815 UTC 22 January 2019
Temperature: -6.0°C (21°F)
Dewpoint: -6.0°C (21°F) [RH = 100%]
Pressure (altimeter): 30.00 inches Hg (1016.0 mb)
Winds: calm
Visibility: 1.86 miles (2.99 km)
Ceiling: at least 12,000 feet AGL
Clouds: sky clear below 12,000 feet AGL
Weather: BR  (mist)

Forecast for: LHPR (GYOR , HU)
Text: TAF LHPR 220815Z 2209/2218 VRB03KT 3000 BR NSC
Forecast period: 0900 to 1100 UTC 22 January 2019
Forecast type: FROM: standard forecast or significant change
Winds: variable direction winds at 3 MPH (3 knots; 1.5 m/s)
Visibility: 1.86 miles (2.99 km)
Ceiling: unknown
Clouds: missing
Weather: BR  (mist)
Text: PROB30 2209/2211 0600 FZFG VV002
Forecast period: 0900 to 1100 UTC 22 January 2019
Forecast type: PROBABLE: 30 percent likelihood of the following during this time
Visibility: 0.37 miles (0.60 km)
Ceiling: indefinite ceiling with vertical visibility of 200 feet AGL
Clouds: obscured sky
Weather: FZFG  (freezing fog)
Text: BECMG 2211/2214 05005KT 6000 NSW
Forecast period: 1100 to 1800 UTC 22 January 2019
Forecast type: BECOMING: Conditions expected to become as follows by 1400 UTC 22 January 2019
Winds: from the NE (50 degrees) at 6 MPH (5 knots; 2.6 m/s)
Visibility: 4 miles (6 km)
Ceiling: unknown
Clouds: missing
Weather: NSW  (no significant weather)